sensor_id;sensor_type;location;lat;lon;timestamp;pressure;altitude;pressure_sealevel;temperature;humidity
1616;BME280;801;47.982;7.810;2023-11-22T00:00:41;98924.03;;;9.50;100.00
1616;BME280;801;47.982;7.810;2023-11-22T00:03:08;98922.91;;;9.46;100.00
1616;BME280;801;47.982;7.810;2023-11-22T00:05:36;98912.03;;;9.35;100.00
1616;BME280;801;47.982;7.810;2023-11-22T00:08:03;98921.69;;;9.37;100.00
1616;BME280;801;47.982;7.810;2023-11-22T00:10:29;98915.25;;;9.54;100.00
1616;BME280;801;47.982;7.810;2023-11-22T00:12:56;98916.25;;;9.31;100.00
1616;BME280;801;47.982;7.810;2023-11-22T00:15:24;98921.44;;;9.21;100.00
1616;BME280;801;47.982;7.810;2023-11-22T00:17:51;98923.97;;;9.11;100.00
1616;BME280;801;47.982;7.810;2023-11-22T00:20:18;98921.63;;;9.31;100.00
1616;BME280;801;47.982;7.810;2023-11-22T00:22:47;98920.78;;;9.31;100.00
1616;BME280;801;47.982;7.810;2023-11-22T00:25:14;98927.53;;;9.17;100.00
1616;BME280;801;47.982;7.810;2023-11-22T00:27:40;98923.88;;;9.40;100.00
1616;BME280;801;47.982;7.810;2023-11-22T00:30:08;98941.28;;;9.54;100.00
1616;BME280;801;47.982;7.810;2023-11-22T00:32:35;98947.22;;;9.56;100.00
1616;BME280;801;47.982;7.810;2023-11-22T00:35:02;98941.44;;;9.30;100.00
1616;BME280;801;47.982;7.810;2023-11-22T00:37:29;98944.59;;;9.61;100.00
1616;BME280;801;47.982;7.810;2023-11-22T00:39:57;98950.53;;;9.29;100.00
1616;BME280;801;47.982;7.810;2023-11-22T00:42:24;98946.97;;;9.41;100.00
1616;BME280;801;47.982;7.810;2023-11-22T00:44:52;98942.72;;;9.28;100.00
1616;BME280;801;47.982;7.810;2023-11-22T00:47:18;98949.91;;;10.12;100.00
1616;BME280;801;47.982;7.810;2023-11-22T00:49:45;98951.09;;;9.65;100.00
1616;BME280;801;47.982;7.810;2023-11-22T00:52:11;98954.34;;;9.50;100.00
1616;BME280;801;47.982;7.810;2023-11-22T00:54:38;98951.25;;;9.42;100.00
1616;BME280;801;47.982;7.810;2023-11-22T00:57:06;98943.59;;;9.00;100.00
1616;BME280;801;47.982;7.810;2023-11-22T00:59:33;98943.59;;;9.00;100.00
1616;BME280;801;47.982;7.810;2023-11-22T01:01:59;98940.88;;;9.11;100.00
1616;BME280;801;47.982;7.810;2023-11-22T01:04:27;98943.06;;;9.31;100.00
1616;BME280;801;47.982;7.810;2023-11-22T01:06:53;98939.13;;;9.05;100.00
1616;BME280;801;47.982;7.810;2023-11-22T01:09:20;98951.25;;;9.08;100.00
1616;BME280;801;47.982;7.810;2023-11-22T01:11:46;98946.72;;;9.25;100.00
1616;BME280;801;47.982;7.810;2023-11-22T01:14:14;98952.91;;;9.43;100.00
1616;BME280;801;47.982;7.810;2023-11-22T01:16:41;98955.66;;;9.31;100.00
1616;BME280;801;47.982;7.810;2023-11-22T01:19:08;98956.47;;;9.65;100.00
1616;BME280;801;47.982;7.810;2023-11-22T01:21:35;98965.19;;;10.11;100.00
1616;BME280;801;47.982;7.810;2023-11-22T01:24:01;98975.25;;;10.21;100.00
1616;BME280;801;47.982;7.810;2023-11-22T01:26:28;98971.97;;;9.97;100.00
1616;BME280;801;47.982;7.810;2023-11-22T01:28:55;98975.78;;;10.01;100.00
1616;BME280;801;47.982;7.810;2023-11-22T01:31:23;98958.41;;;9.87;100.00
1616;BME280;801;47.982;7.810;2023-11-22T01:33:50;98967.16;;;9.99;100.00
1616;BME280;801;47.982;7.810;2023-11-22T01:36:17;98968.25;;;9.98;100.00
1616;BME280;801;47.982;7.810;2023-11-22T01:38:43;98974.44;;;9.82;100.00
1616;BME280;801;47.982;7.810;2023-11-22T01:41:11;98969.97;;;9.70;100.00
1616;BME280;801;47.982;7.810;2023-11-22T01:43:39;98970.25;;;10.08;100.00
1616;BME280;801;47.982;7.810;2023-11-22T01:46:07;98968.41;;;10.30;100.00
1616;BME280;801;47.982;7.810;2023-11-22T01:48:35;98971.13;;;10.52;100.00
1616;BME280;801;47.982;7.810;2023-11-22T01:51:03;98976.91;;;10.44;100.00
1616;BME280;801;47.982;7.810;2023-11-22T01:53:30;98978.09;;;10.31;100.00
1616;BME280;801;47.982;7.810;2023-11-22T01:55:58;98971.34;;;10.73;100.00
1616;BME280;801;47.982;7.810;2023-11-22T01:58:24;98970.41;;;10.62;100.00
1616;BME280;801;47.982;7.810;2023-11-22T02:00:52;98971.56;;;10.93;100.00
1616;BME280;801;47.982;7.810;2023-11-22T02:03:19;98967.22;;;11.14;100.00
1616;BME280;801;47.982;7.810;2023-11-22T02:05:47;98985.56;;;10.95;100.00
1616;BME280;801;47.982;7.810;2023-11-22T02:08:14;98982.84;;;10.90;100.00
1616;BME280;801;47.982;7.810;2023-11-22T02:10:41;98978.19;;;11.08;100.00
1616;BME280;801;47.982;7.810;2023-11-22T02:13:09;98974.16;;;11.10;100.00
1616;BME280;801;47.982;7.810;2023-11-22T02:15:36;98977.25;;;11.24;100.00
1616;BME280;801;47.982;7.810;2023-11-22T02:18:04;98978.00;;;11.52;100.00
1616;BME280;801;47.982;7.810;2023-11-22T02:20:31;98972.34;;;11.48;100.00
1616;BME280;801;47.982;7.810;2023-11-22T02:23:07;98977.84;;;11.31;100.00
1616;BME280;801;47.982;7.810;2023-11-22T02:25:34;98977.13;;;11.14;100.00
1616;BME280;801;47.982;7.810;2023-11-22T02:28:00;98982.31;;;11.20;100.00
1616;BME280;801;47.982;7.810;2023-11-22T02:30:27;98983.19;;;10.99;100.00
1616;BME280;801;47.982;7.810;2023-11-22T02:32:54;98988.47;;;10.06;100.00
1616;BME280;801;47.982;7.810;2023-11-22T02:35:20;98994.59;;;10.40;100.00
1616;BME280;801;47.982;7.810;2023-11-22T02:37:47;98990.09;;;10.07;100.00
1616;BME280;801;47.982;7.810;2023-11-22T02:40:17;98995.09;;;10.20;100.00
1616;BME280;801;47.982;7.810;2023-11-22T02:42:44;98999.72;;;9.86;100.00
1616;BME280;801;47.982;7.810;2023-11-22T02:45:10;98992.41;;;9.98;100.00
1616;BME280;801;47.982;7.810;2023-11-22T02:47:37;98998.91;;;9.68;100.00
1616;BME280;801;47.982;7.810;2023-11-22T02:50:05;98993.91;;;9.26;100.00
1616;BME280;801;47.982;7.810;2023-11-22T02:52:32;98998.13;;;9.05;100.00
1616;BME280;801;47.982;7.810;2023-11-22T02:54:58;99002.31;;;9.01;100.00
1616;BME280;801;47.982;7.810;2023-11-22T02:57:26;99007.50;;;8.50;100.00
1616;BME280;801;47.982;7.810;2023-11-22T02:59:53;99013.47;;;8.29;100.00
1616;BME280;801;47.982;7.810;2023-11-22T03:02:19;99009.28;;;8.45;100.00
1616;BME280;801;47.982;7.810;2023-11-22T03:04:46;99013.44;;;8.52;100.00
1616;BME280;801;47.982;7.810;2023-11-22T03:07:12;99014.63;;;8.09;100.00
1616;BME280;801;47.982;7.810;2023-11-22T03:09:39;99019.03;;;8.27;100.00
1616;BME280;801;47.982;7.810;2023-11-22T03:12:06;99025.56;;;8.20;100.00
1616;BME280;801;47.982;7.810;2023-11-22T03:14:35;99038.00;;;8.26;100.00
1616;BME280;801;47.982;7.810;2023-11-22T03:17:02;99034.28;;;7.92;100.00
1616;BME280;801;47.982;7.810;2023-11-22T03:19:28;99033.94;;;7.76;100.00
1616;BME280;801;47.982;7.810;2023-11-22T03:21:55;99033.22;;;7.69;100.00
1616;BME280;801;47.982;7.810;2023-11-22T03:24:22;99041.63;;;7.96;100.00
1616;BME280;801;47.982;7.810;2023-11-22T03:26:48;99049.41;;;7.74;100.00
1616;BME280;801;47.982;7.810;2023-11-22T03:29:15;99049.06;;;7.94;100.00
1616;BME280;801;47.982;7.810;2023-11-22T03:31:44;99054.31;;;8.01;100.00
1616;BME280;801;47.982;7.810;2023-11-22T03:34:12;99058.28;;;7.98;100.00
1616;BME280;801;47.982;7.810;2023-11-22T03:36:40;99065.44;;;7.74;100.00
1616;BME280;801;47.982;7.810;2023-11-22T03:39:06;99075.00;;;7.82;100.00
1616;BME280;801;47.982;7.810;2023-11-22T03:41:35;99071.41;;;7.88;100.00
1616;BME280;801;47.982;7.810;2023-11-22T03:44:02;99071.09;;;7.54;100.00
1616;BME280;801;47.982;7.810;2023-11-22T03:46:29;99080.22;;;7.77;100.00
1616;BME280;801;47.982;7.810;2023-11-22T03:48:57;99081.19;;;7.40;100.00
1616;BME280;801;47.982;7.810;2023-11-22T03:51:24;99080.72;;;7.43;100.00
1616;BME280;801;47.982;7.810;2023-11-22T03:53:50;99086.38;;;7.65;100.00
1616;BME280;801;47.982;7.810;2023-11-22T03:56:16;99088.88;;;7.37;100.00
1616;BME280;801;47.982;7.810;2023-11-22T03:58:43;99090.06;;;7.53;100.00
1616;BME280;801;47.982;7.810;2023-11-22T04:01:09;99094.66;;;7.76;100.00
1616;BME280;801;47.982;7.810;2023-11-22T04:03:36;99094.69;;;7.15;100.00
1616;BME280;801;47.982;7.810;2023-11-22T04:06:04;99101.47;;;7.60;100.00
1616;BME280;801;47.982;7.810;2023-11-22T04:08:31;99093.06;;;7.44;100.00
1616;BME280;801;47.982;7.810;2023-11-22T04:10:57;99105.66;;;7.56;100.00
1616;BME280;801;47.982;7.810;2023-11-22T04:13:24;99117.34;;;6.94;100.00
1616;BME280;801;47.982;7.810;2023-11-22T04:15:51;99126.84;;;7.09;100.00
1616;BME280;801;47.982;7.810;2023-11-22T04:18:17;99135.81;;;7.14;100.00
1616;BME280;801;47.982;7.810;2023-11-22T04:20:44;99132.78;;;7.59;100.00
1616;BME280;801;47.982;7.810;2023-11-22T04:23:12;99135.84;;;7.44;100.00
1616;BME280;801;47.982;7.810;2023-11-22T04:25:40;99152.97;;;7.06;100.00
1616;BME280;801;47.982;7.810;2023-11-22T04:28:07;99154.56;;;7.44;100.00
1616;BME280;801;47.982;7.810;2023-11-22T04:30:35;99162.38;;;7.46;100.00
1616;BME280;801;47.982;7.810;2023-11-22T04:33:02;99160.09;;;7.13;100.00
1616;BME280;801;47.982;7.810;2023-11-22T04:35:28;99155.81;;;6.93;100.00
1616;BME280;801;47.982;7.810;2023-11-22T04:37:59;99159.44;;;6.99;100.00
1616;BME280;801;47.982;7.810;2023-11-22T04:40:27;99167.06;;;7.14;100.00
1616;BME280;801;47.982;7.810;2023-11-22T04:42:53;99151.41;;;6.80;100.00
1616;BME280;801;47.982;7.810;2023-11-22T04:45:20;99169.38;;;6.92;100.00
1616;BME280;801;47.982;7.810;2023-11-22T04:47:46;99167.88;;;6.77;100.00
1616;BME280;801;47.982;7.810;2023-11-22T04:50:12;99177.19;;;6.93;100.00
1616;BME280;801;47.982;7.810;2023-11-22T04:52:39;99174.88;;;6.97;100.00
1616;BME280;801;47.982;7.810;2023-11-22T04:55:06;99182.97;;;7.09;100.00
1616;BME280;801;47.982;7.810;2023-11-22T04:57:34;99183.78;;;7.09;100.00
1616;BME280;801;47.982;7.810;2023-11-22T05:00:01;99186.91;;;7.06;100.00
1616;BME280;801;47.982;7.810;2023-11-22T05:02:30;99196.25;;;7.15;100.00
1616;BME280;801;47.982;7.810;2023-11-22T05:04:56;99186.81;;;6.94;100.00
1616;BME280;801;47.982;7.810;2023-11-22T05:07:23;99194.03;;;6.94;100.00
1616;BME280;801;47.982;7.810;2023-11-22T05:09:49;99200.25;;;7.61;100.00
1616;BME280;801;47.982;7.810;2023-11-22T05:12:15;99218.28;;;7.96;100.00
1616;BME280;801;47.982;7.810;2023-11-22T05:14:43;99226.72;;;7.33;100.00
1616;BME280;801;47.982;7.810;2023-11-22T05:17:10;99231.88;;;7.64;100.00
1616;BME280;801;47.982;7.810;2023-11-22T05:19:37;99254.09;;;7.46;100.00
1616;BME280;801;47.982;7.810;2023-11-22T05:22:04;99237.66;;;6.88;100.00
1616;BME280;801;47.982;7.810;2023-11-22T05:24:30;99236.22;;;7.10;100.00
1616;BME280;801;47.982;7.810;2023-11-22T05:26:57;99243.25;;;7.23;100.00
1616;BME280;801;47.982;7.810;2023-11-22T05:29:23;99236.34;;;7.15;100.00
1616;BME280;801;47.982;7.810;2023-11-22T05:31:51;99240.22;;;7.19;100.00
1616;BME280;801;47.982;7.810;2023-11-22T05:34:18;99245.38;;;6.96;100.00
1616;BME280;801;47.982;7.810;2023-11-22T05:36:44;99241.94;;;6.70;100.00
1616;BME280;801;47.982;7.810;2023-11-22T05:39:11;99243.56;;;6.71;100.00
1616;BME280;801;47.982;7.810;2023-11-22T05:41:38;99242.97;;;6.69;100.00
1616;BME280;801;47.982;7.810;2023-11-22T05:44:04;99257.06;;;7.20;100.00
1616;BME280;801;47.982;7.810;2023-11-22T05:46:31;99252.53;;;7.02;100.00
1616;BME280;801;47.982;7.810;2023-11-22T05:49:00;99247.59;;;6.30;100.00
1616;BME280;801;47.982;7.810;2023-11-22T05:51:26;99251.38;;;6.16;100.00
1616;BME280;801;47.982;7.810;2023-11-22T05:53:53;99261.16;;;6.29;100.00
1616;BME280;801;47.982;7.810;2023-11-22T05:56:19;99268.72;;;6.00;100.00
1616;BME280;801;47.982;7.810;2023-11-22T05:58:46;99262.97;;;6.03;100.00
1616;BME280;801;47.982;7.810;2023-11-22T06:01:12;99270.72;;;6.05;100.00
1616;BME280;801;47.982;7.810;2023-11-22T06:03:39;99267.38;;;6.16;100.00
1616;BME280;801;47.982;7.810;2023-11-22T06:06:07;99278.22;;;6.53;100.00
1616;BME280;801;47.982;7.810;2023-11-22T06:08:34;99269.38;;;5.82;100.00
1616;BME280;801;47.982;7.810;2023-11-22T06:11:00;99270.41;;;6.26;100.00
1616;BME280;801;47.982;7.810;2023-11-22T06:13:27;99278.28;;;6.14;100.00
1616;BME280;801;47.982;7.810;2023-11-22T06:15:53;99276.03;;;6.11;100.00
1616;BME280;801;47.982;7.810;2023-11-22T06:18:20;99282.84;;;6.39;100.00
1616;BME280;801;47.982;7.810;2023-11-22T06:20:46;99286.41;;;6.26;100.00
1616;BME280;801;47.982;7.810;2023-11-22T06:23:15;99292.72;;;6.32;100.00
1616;BME280;801;47.982;7.810;2023-11-22T06:25:41;99291.41;;;6.48;100.00
1616;BME280;801;47.982;7.810;2023-11-22T06:28:08;99293.53;;;6.00;100.00
1616;BME280;801;47.982;7.810;2023-11-22T06:30:35;99298.84;;;6.07;100.00
1616;BME280;801;47.982;7.810;2023-11-22T06:33:01;99311.03;;;5.96;100.00
1616;BME280;801;47.982;7.810;2023-11-22T06:35:28;99312.06;;;6.27;100.00
1616;BME280;801;47.982;7.810;2023-11-22T06:37:54;99322.88;;;6.00;100.00
1616;BME280;801;47.982;7.810;2023-11-22T06:40:22;99334.41;;;5.88;100.00
1616;BME280;801;47.982;7.810;2023-11-22T06:42:49;99325.34;;;6.02;100.00
1616;BME280;801;47.982;7.810;2023-11-22T06:45:15;99333.56;;;5.94;100.00
1616;BME280;801;47.982;7.810;2023-11-22T06:47:42;99342.22;;;5.76;100.00
1616;BME280;801;47.982;7.810;2023-11-22T06:50:10;99339.94;;;5.99;100.00
1616;BME280;801;47.982;7.810;2023-11-22T06:52:37;99346.00;;;5.55;100.00
1616;BME280;801;47.982;7.810;2023-11-22T06:55:04;99343.81;;;6.03;100.00
1616;BME280;801;47.982;7.810;2023-11-22T06:57:34;99341.13;;;5.32;100.00
1616;BME280;801;47.982;7.810;2023-11-22T07:00:01;99352.56;;;5.52;100.00
1616;BME280;801;47.982;7.810;2023-11-22T07:02:30;99354.47;;;5.38;100.00
1616;BME280;801;47.982;7.810;2023-11-22T07:04:56;99364.97;;;5.92;100.00
1616;BME280;801;47.982;7.810;2023-11-22T07:07:24;99361.13;;;5.81;100.00
1616;BME280;801;47.982;7.810;2023-11-22T07:09:50;99363.84;;;6.58;100.00
1616;BME280;801;47.982;7.810;2023-11-22T07:12:17;99370.03;;;6.13;100.00
1616;BME280;801;47.982;7.810;2023-11-22T07:14:45;99368.75;;;6.22;100.00
1616;BME280;801;47.982;7.810;2023-11-22T07:17:15;99384.53;;;5.72;100.00
1616;BME280;801;47.982;7.810;2023-11-22T07:19:42;99386.47;;;5.18;100.00
1616;BME280;801;47.982;7.810;2023-11-22T07:22:12;99399.72;;;5.65;100.00
1616;BME280;801;47.982;7.810;2023-11-22T07:24:42;99406.97;;;5.11;100.00
1616;BME280;801;47.982;7.810;2023-11-22T07:27:09;99406.94;;;5.38;100.00
1616;BME280;801;47.982;7.810;2023-11-22T07:29:37;99421.28;;;4.97;100.00
1616;BME280;801;47.982;7.810;2023-11-22T07:32:06;99415.09;;;4.76;100.00
1616;BME280;801;47.982;7.810;2023-11-22T07:34:32;99429.69;;;5.01;100.00
1616;BME280;801;47.982;7.810;2023-11-22T07:36:59;99415.72;;;4.78;100.00
1616;BME280;801;47.982;7.810;2023-11-22T07:39:26;99428.38;;;4.56;100.00
1616;BME280;801;47.982;7.810;2023-11-22T07:41:53;99420.63;;;4.82;100.00
1616;BME280;801;47.982;7.810;2023-11-22T07:44:20;99425.34;;;4.73;100.00
1616;BME280;801;47.982;7.810;2023-11-22T07:46:47;99429.69;;;4.94;100.00
1616;BME280;801;47.982;7.810;2023-11-22T07:49:14;99436.63;;;4.82;100.00
1616;BME280;801;47.982;7.810;2023-11-22T07:51:43;99437.25;;;4.84;100.00
1616;BME280;801;47.982;7.810;2023-11-22T07:54:10;99436.25;;;4.91;100.00
1616;BME280;801;47.982;7.810;2023-11-22T07:56:37;99446.41;;;4.61;100.00
1616;BME280;801;47.982;7.810;2023-11-22T07:59:04;99451.81;;;4.88;100.00
1616;BME280;801;47.982;7.810;2023-11-22T08:01:30;99459.78;;;4.88;100.00
1616;BME280;801;47.982;7.810;2023-11-22T08:03:57;99453.44;;;4.89;100.00
1616;BME280;801;47.982;7.810;2023-11-22T08:06:25;99459.56;;;4.69;100.00
1616;BME280;801;47.982;7.810;2023-11-22T08:08:52;99470.94;;;4.50;100.00
1616;BME280;801;47.982;7.810;2023-11-22T08:11:18;99471.06;;;4.83;100.00
1616;BME280;801;47.982;7.810;2023-11-22T08:13:46;99471.09;;;5.03;100.00
1616;BME280;801;47.982;7.810;2023-11-22T08:16:13;99469.25;;;5.04;100.00
1616;BME280;801;47.982;7.810;2023-11-22T08:18:40;99479.06;;;4.90;100.00
1616;BME280;801;47.982;7.810;2023-11-22T08:21:08;99475.34;;;4.84;100.00
1616;BME280;801;47.982;7.810;2023-11-22T08:23:36;99473.13;;;5.01;100.00
1616;BME280;801;47.982;7.810;2023-11-22T08:26:03;99473.88;;;4.68;100.00
1616;BME280;801;47.982;7.810;2023-11-22T08:28:31;99474.75;;;4.95;100.00
1616;BME280;801;47.982;7.810;2023-11-22T08:30:57;99483.38;;;4.97;100.00
1616;BME280;801;47.982;7.810;2023-11-22T08:33:24;99480.94;;;5.09;100.00
1616;BME280;801;47.982;7.810;2023-11-22T08:35:50;99493.06;;;4.50;100.00
1616;BME280;801;47.982;7.810;2023-11-22T08:38:23;99478.28;;;5.16;100.00
1616;BME280;801;47.982;7.810;2023-11-22T08:40:51;99480.56;;;5.52;100.00
1616;BME280;801;47.982;7.810;2023-11-22T08:43:18;99490.41;;;5.78;100.00
1616;BME280;801;47.982;7.810;2023-11-22T08:45:48;99481.16;;;5.28;100.00
1616;BME280;801;47.982;7.810;2023-11-22T08:48:14;99482.75;;;5.02;100.00
1616;BME280;801;47.982;7.810;2023-11-22T08:50:42;99474.94;;;4.81;100.00
1616;BME280;801;47.982;7.810;2023-11-22T08:53:10;99476.44;;;5.10;100.00
1616;BME280;801;47.982;7.810;2023-11-22T08:55:37;99476.59;;;4.95;100.00
1616;BME280;801;47.982;7.810;2023-11-22T08:58:05;99471.09;;;5.03;100.00
1616;BME280;801;47.982;7.810;2023-11-22T09:00:33;99470.69;;;5.06;100.00
1616;BME280;801;47.982;7.810;2023-11-22T09:03:01;99474.81;;;5.62;100.00
1616;BME280;801;47.982;7.810;2023-11-22T09:05:28;99481.56;;;5.38;100.00
1616;BME280;801;47.982;7.810;2023-11-22T09:07:55;99480.94;;;5.56;100.00
1616;BME280;801;47.982;7.810;2023-11-22T09:10:23;99472.38;;;5.47;100.00
1616;BME280;801;47.982;7.810;2023-11-22T09:12:49;99487.31;;;5.35;100.00
1616;BME280;801;47.982;7.810;2023-11-22T09:15:18;99489.53;;;4.98;100.00
1616;BME280;801;47.982;7.810;2023-11-22T09:17:51;99501.84;;;5.06;100.00
1616;BME280;801;47.982;7.810;2023-11-22T09:20:19;99504.69;;;5.04;100.00
1616;BME280;801;47.982;7.810;2023-11-22T09:22:47;99505.91;;;4.95;100.00
1616;BME280;801;47.982;7.810;2023-11-22T09:25:14;99503.22;;;4.88;100.00
1616;BME280;801;47.982;7.810;2023-11-22T09:27:42;99502.47;;;5.14;100.00
1616;BME280;801;47.982;7.810;2023-11-22T09:30:12;99508.19;;;4.98;100.00
1616;BME280;801;47.982;7.810;2023-11-22T09:32:45;99501.06;;;5.32;100.00
1616;BME280;801;47.982;7.810;2023-11-22T09:35:12;99508.44;;;5.30;100.00
1616;BME280;801;47.982;7.810;2023-11-22T09:37:39;99510.47;;;5.28;100.00
1616;BME280;801;47.982;7.810;2023-11-22T09:40:08;99504.94;;;5.56;100.00
1616;BME280;801;47.982;7.810;2023-11-22T09:42:35;99498.59;;;5.57;100.00
1616;BME280;801;47.982;7.810;2023-11-22T09:45:02;99500.63;;;5.81;100.00
1616;BME280;801;47.982;7.810;2023-11-22T09:47:32;99500.44;;;5.70;100.00
1616;BME280;801;47.982;7.810;2023-11-22T09:50:01;99491.03;;;5.47;100.00
1616;BME280;801;47.982;7.810;2023-11-22T09:52:33;99501.47;;;5.49;100.00
1616;BME280;801;47.982;7.810;2023-11-22T09:55:00;99504.75;;;5.44;100.00
1616;BME280;801;47.982;7.810;2023-11-22T09:57:29;99512.53;;;5.92;100.00
1616;BME280;801;47.982;7.810;2023-11-22T09:59:57;99515.34;;;6.37;100.00
1616;BME280;801;47.982;7.810;2023-11-22T10:02:25;99520.59;;;6.57;100.00
1616;BME280;801;47.982;7.810;2023-11-22T10:04:53;99522.75;;;6.22;100.00
1616;BME280;801;47.982;7.810;2023-11-22T10:07:21;99525.41;;;6.29;100.00
1616;BME280;801;47.982;7.810;2023-11-22T10:09:48;99518.91;;;6.05;100.00
1616;BME280;801;47.982;7.810;2023-11-22T10:12:19;99526.06;;;5.91;100.00
1616;BME280;801;47.982;7.810;2023-11-22T10:14:46;99515.22;;;5.39;100.00
1616;BME280;801;47.982;7.810;2023-11-22T10:17:12;99517.25;;;5.37;100.00
1616;BME280;801;47.982;7.810;2023-11-22T10:19:40;99506.16;;;5.40;100.00
1616;BME280;801;47.982;7.810;2023-11-22T10:22:08;99500.22;;;5.65;100.00
1616;BME280;801;47.982;7.810;2023-11-22T10:24:36;99502.69;;;5.53;100.00
1616;BME280;801;47.982;7.810;2023-11-22T10:27:03;99490.78;;;5.62;100.00
1616;BME280;801;47.982;7.810;2023-11-22T10:29:30;99503.50;;;5.67;100.00
1616;BME280;801;47.982;7.810;2023-11-22T10:31:58;99495.91;;;5.90;100.00
1616;BME280;801;47.982;7.810;2023-11-22T10:34:25;99498.16;;;6.07;100.00
1616;BME280;801;47.982;7.810;2023-11-22T10:36:55;99500.19;;;6.18;100.00
1616;BME280;801;47.982;7.810;2023-11-22T10:39:22;99505.09;;;6.34;100.00
1616;BME280;801;47.982;7.810;2023-11-22T10:41:52;99509.44;;;5.89;100.00
1616;BME280;801;47.982;7.810;2023-11-22T10:44:20;99520.34;;;5.60;100.00
1616;BME280;801;47.982;7.810;2023-11-22T10:46:47;99525.88;;;5.52;100.00
1616;BME280;801;47.982;7.810;2023-11-22T10:49:16;99522.41;;;5.65;100.00
1616;BME280;801;47.982;7.810;2023-11-22T10:51:44;99535.50;;;5.80;100.00
1616;BME280;801;47.982;7.810;2023-11-22T10:54:14;99533.88;;;5.66;100.00
1616;BME280;801;47.982;7.810;2023-11-22T10:56:43;99530.41;;;5.92;100.00
1616;BME280;801;47.982;7.810;2023-11-22T10:59:15;99544.13;;;5.89;100.00
1616;BME280;801;47.982;7.810;2023-11-22T11:01:45;99546.63;;;6.03;100.00
1616;BME280;801;47.982;7.810;2023-11-22T11:04:19;99555.22;;;5.72;100.00
1616;BME280;801;47.982;7.810;2023-11-22T11:06:51;99562.53;;;5.24;100.00
1616;BME280;801;47.982;7.810;2023-11-22T11:09:21;99561.72;;;5.16;100.00
1616;BME280;801;47.982;7.810;2023-11-22T11:11:52;99567.44;;;5.13;100.00
1616;BME280;801;47.982;7.810;2023-11-22T11:14:20;99567.81;;;5.04;100.00
1616;BME280;801;47.982;7.810;2023-11-22T11:16:47;99572.41;;;5.30;100.00
1616;BME280;801;47.982;7.810;2023-11-22T11:19:15;99575.00;;;5.03;100.00
1616;BME280;801;47.982;7.810;2023-11-22T11:21:43;99570.75;;;5.35;100.00
1616;BME280;801;47.982;7.810;2023-11-22T11:24:10;99577.28;;;5.19;100.00
1616;BME280;801;47.982;7.810;2023-11-22T11:26:37;99574.19;;;5.03;100.00
1616;BME280;801;47.982;7.810;2023-11-22T11:29:03;99577.50;;;5.18;100.00
1616;BME280;801;47.982;7.810;2023-11-22T11:31:33;99566.06;;;5.57;100.00
1616;BME280;801;47.982;7.810;2023-11-22T11:34:00;99563.84;;;5.68;100.00
1616;BME280;801;47.982;7.810;2023-11-22T11:36:29;99568.75;;;5.84;100.00
1616;BME280;801;47.982;7.810;2023-11-22T11:38:58;99566.28;;;5.49;100.00
1616;BME280;801;47.982;7.810;2023-11-22T11:41:28;99574.69;;;5.59;100.00
1616;BME280;801;47.982;7.810;2023-11-22T11:43:56;99576.75;;;5.91;100.00
1616;BME280;801;47.982;7.810;2023-11-22T11:46:23;99579.00;;;5.87;100.00
1616;BME280;801;47.982;7.810;2023-11-22T11:48:52;99588.22;;;5.65;100.00
1616;BME280;801;47.982;7.810;2023-11-22T11:51:20;99593.81;;;5.70;100.00
1616;BME280;801;47.982;7.810;2023-11-22T11:53:47;99600.00;;;5.97;100.00
1616;BME280;801;47.982;7.810;2023-11-22T11:56:14;99612.25;;;5.85;100.00
1616;BME280;801;47.982;7.810;2023-11-22T11:58:42;99608.56;;;5.79;100.00
1616;BME280;801;47.982;7.810;2023-11-22T12:01:09;99606.47;;;5.41;100.00
1616;BME280;801;47.982;7.810;2023-11-22T12:03:35;99613.03;;;5.45;100.00
1616;BME280;801;47.982;7.810;2023-11-22T12:06:05;99609.38;;;5.66;100.00
1616;BME280;801;47.982;7.810;2023-11-22T12:08:31;99608.97;;;5.89;100.00
1616;BME280;801;47.982;7.810;2023-11-22T12:11:02;99605.91;;;5.66;100.00
1616;BME280;801;47.982;7.810;2023-11-22T12:13:29;99612.19;;;5.25;100.00
1616;BME280;801;47.982;7.810;2023-11-22T12:15:57;99625.25;;;5.19;100.00
1616;BME280;801;47.982;7.810;2023-11-22T12:18:23;99631.72;;;5.45;100.00
1616;BME280;801;47.982;7.810;2023-11-22T12:20:57;99626.50;;;5.24;100.00
1616;BME280;801;47.982;7.810;2023-11-22T12:23:26;99637.06;;;5.58;100.00
1616;BME280;801;47.982;7.810;2023-11-22T12:25:54;99638.72;;;4.98;100.00
1616;BME280;801;47.982;7.810;2023-11-22T12:28:23;99651.56;;;5.36;100.00
1616;BME280;801;47.982;7.810;2023-11-22T12:30:50;99647.00;;;5.16;100.00
1616;BME280;801;47.982;7.810;2023-11-22T12:33:17;99639.22;;;5.22;100.00
1616;BME280;801;47.982;7.810;2023-11-22T12:35:45;99649.88;;;5.22;100.00
1616;BME280;801;47.982;7.810;2023-11-22T12:38:11;99656.47;;;5.32;100.00
1616;BME280;801;47.982;7.810;2023-11-22T12:40:43;99652.44;;;5.50;100.00
1616;BME280;801;47.982;7.810;2023-11-22T12:43:12;99648.88;;;5.23;100.00
1616;BME280;801;47.982;7.810;2023-11-22T12:45:39;99648.72;;;5.44;100.00
1616;BME280;801;47.982;7.810;2023-11-22T12:48:21;99655.16;;;5.08;100.00
1616;BME280;801;47.982;7.810;2023-11-22T12:50:49;99666.38;;;5.45;100.00
1616;BME280;801;47.982;7.810;2023-11-22T12:53:16;99648.00;;;5.15;100.00
1616;BME280;801;47.982;7.810;2023-11-22T12:55:46;99650.31;;;5.32;100.00
1616;BME280;801;47.982;7.810;2023-11-22T12:58:14;99657.88;;;5.28;100.00
1616;BME280;801;47.982;7.810;2023-11-22T13:00:41;99658.72;;;5.29;100.00
1616;BME280;801;47.982;7.810;2023-11-22T13:03:08;99667.84;;;5.06;100.00
1616;BME280;801;47.982;7.810;2023-11-22T13:05:35;99662.00;;;4.83;100.00
1616;BME280;801;47.982;7.810;2023-11-22T13:08:02;99654.44;;;4.51;100.00
1616;BME280;801;47.982;7.810;2023-11-22T13:10:29;99659.78;;;4.93;100.00
1616;BME280;801;47.982;7.810;2023-11-22T13:12:57;99663.69;;;4.97;100.00
1616;BME280;801;47.982;7.810;2023-11-22T13:15:24;99663.69;;;5.45;100.00
1616;BME280;801;47.982;7.810;2023-11-22T13:17:51;99671.31;;;5.61;100.00
1616;BME280;801;47.982;7.810;2023-11-22T13:20:23;99665.13;;;5.41;100.00
1616;BME280;801;47.982;7.810;2023-11-22T13:22:51;99651.28;;;5.17;100.00
1616;BME280;801;47.982;7.810;2023-11-22T13:25:18;99642.09;;;5.27;100.00
1616;BME280;801;47.982;7.810;2023-11-22T13:27:45;99653.25;;;5.50;100.00
1616;BME280;801;47.982;7.810;2023-11-22T13:30:14;99657.78;;;5.56;100.00
1616;BME280;801;47.982;7.810;2023-11-22T13:32:42;99640.94;;;5.49;100.00